Time;durP1;ratioP1;P1;durP2;ratioP2;P2;SDS_P1;SDS_P2;PMS_P1;PMS_P2;Temp;Humidity;BMP_temperature;BMP_pressure;BME280_temperature;BME280_humidity;BME280_pressure;Samples;Min_cycle;Max_cycle;Signal;HPM_P1;HPM_P2
2022/08/02 00:00:11;;;;;;;7.85;4.10;;;;;;;27.53;50.11;98044.34;4486188;31;20099;-84
2022/08/02 00:02:39;;;;;;;9.65;4.70;;;;;;;27.44;50.46;98050.72;4485793;31;20125;-84
2022/08/02 00:05:07;;;;;;;8.60;4.60;;;;;;;26.71;52.41;98056.16;4488181;31;20159;-84
2022/08/02 00:07:34;;;;;;;8.05;4.45;;;;;;;26.40;53.41;98048.91;4488297;31;20102;-84
2022/08/02 00:10:08;;;;;;;10.65;4.10;;;;;;;27.03;52.11;98042.06;4487947;31;20077;-84
2022/08/02 00:12:35;;;;;;;9.82;4.68;;;;;;;28.04;48.81;98042.09;4488246;31;20092;-84
2022/08/02 00:15:05;;;;;;;8.93;4.35;;;;;;;27.63;48.94;98037.00;4488102;31;20466;-84
2022/08/02 00:17:32;;;;;;;8.13;4.30;;;;;;;26.65;51.86;98043.59;4487876;31;20422;-84
2022/08/02 00:19:59;;;;;;;8.63;4.40;;;;;;;27.19;51.25;98049.13;4488233;31;20450;-84
2022/08/02 00:22:26;;;;;;;8.57;4.47;;;;;;;26.94;51.54;98043.03;4488190;31;20089;-84
2022/08/02 00:24:54;;;;;;;8.60;4.95;;;;;;;27.39;50.39;98043.25;4487733;31;20109;-84
2022/08/02 00:27:20;;;;;;;10.93;4.80;;;;;;;27.26;50.74;98042.16;4488213;31;20147;-84
2022/08/02 00:29:49;;;;;;;8.60;4.55;;;;;;;26.99;51.86;98038.88;4488021;31;20168;-84
2022/08/02 00:32:19;;;;;;;10.20;4.57;;;;;;;26.62;52.90;98044.75;4487993;31;20111;-84
2022/08/02 00:34:46;;;;;;;9.05;4.53;;;;;;;26.70;52.57;98042.09;4487819;31;20101;-84
2022/08/02 00:37:13;;;;;;;11.55;4.53;;;;;;;27.38;49.82;98044.25;4487785;31;20106;-84
2022/08/02 00:39:41;;;;;;;8.05;4.12;;;;;;;27.32;49.38;98042.28;4488106;31;20385;-84
2022/08/02 00:42:08;;;;;;;10.23;4.32;;;;;;;26.75;51.01;98054.81;4488159;31;20105;-84
2022/08/02 00:44:36;;;;;;;7.70;4.20;;;;;;;26.73;51.12;98049.69;4487451;31;20104;-84
2022/08/02 00:47:04;;;;;;;7.53;4.00;;;;;;;26.69;51.12;98063.41;4488028;31;20109;-84
2022/08/02 00:49:31;;;;;;;7.57;4.00;;;;;;;26.13;52.64;98057.91;4487988;31;20124;-84
2022/08/02 00:51:59;;;;;;;10.05;4.30;;;;;;;26.31;52.80;98056.97;4487510;31;20104;-84
2022/08/02 00:54:26;;;;;;;8.40;4.30;;;;;;;26.39;52.70;98060.47;4487807;31;20104;-84
2022/08/02 00:56:53;;;;;;;9.02;4.72;;;;;;;26.34;52.81;98067.19;4486779;32;20176;-84
2022/08/02 00:59:20;;;;;;;8.68;4.57;;;;;;;26.15;53.09;98063.03;4487528;31;20103;-84
2022/08/02 01:01:47;;;;;;;10.02;4.43;;;;;;;24.45;58.35;98056.72;4487908;31;20114;-84
2022/08/02 01:04:26;;;;;;;11.00;4.80;;;;;;;25.83;54.66;98066.44;4487867;31;20157;-84
2022/08/02 01:06:59;;;;;;;7.55;4.20;;;;;;;25.90;53.61;98056.91;4487494;31;20106;-84
2022/08/02 01:09:26;;;;;;;9.30;4.37;;;;;;;26.03;53.35;98064.34;4487696;31;20088;-84
2022/08/02 01:11:53;;;;;;;10.52;4.57;;;;;;;26.35;52.86;98060.91;4487753;31;20100;-84
2022/08/02 01:14:23;;;;;;;8.50;4.30;;;;;;;27.71;48.88;98075.13;4485786;32;20424;-84
2022/08/02 01:17:04;;;;;;;8.23;4.35;;;;;;;27.32;49.49;98081.19;4486717;32;20103;-84
2022/08/02 01:19:54;;;;;;;9.25;4.47;;;;;;;26.81;51.23;98084.09;4487564;31;20143;-84
2022/08/02 01:22:50;;;;;;;10.63;4.55;;;;;;;26.73;51.72;98092.03;4487948;31;20144;-84
2022/08/02 01:25:37;;;;;;;8.05;4.40;;;;;;;26.94;51.28;98104.75;4486623;32;20366;-84
2022/08/02 01:28:29;;;;;;;9.38;4.65;;;;;;;27.58;49.52;98081.78;4487523;31;20084;-84
2022/08/02 01:31:26;;;;;;;8.30;4.15;;;;;;;26.57;52.21;98083.28;4487767;31;20095;-84
2022/08/02 01:34:02;;;;;;;10.27;4.35;;;;;;;25.52;54.90;98077.56;4487288;31;20181;-84
2022/08/02 01:36:34;;;;;;;9.05;4.57;;;;;;;26.46;52.75;98085.25;4487740;31;20100;-84
2022/08/02 01:39:04;;;;;;;9.00;4.50;;;;;;;27.56;49.84;98085.59;4486587;32;20108;-84
2022/08/02 01:41:31;;;;;;;8.55;4.50;;;;;;;26.77;51.41;98077.47;4487321;31;20443;-84
2022/08/02 01:43:59;;;;;;;9.40;4.50;;;;;;;26.83;51.49;98091.03;4486256;32;20119;-84
2022/08/02 01:46:28;;;;;;;8.23;4.70;;;;;;;26.85;51.56;98091.69;4487572;31;20164;-84
2022/08/02 01:48:56;;;;;;;8.77;4.53;;;;;;;26.86;51.65;98098.66;4487234;31;20084;-84
2022/08/02 01:54:11;;;;;;;11.40;4.93;;;;;;;27.29;50.71;98084.19;4486427;32;20095;-84
2022/08/02 01:56:40;;;;;;;10.55;4.20;;;;;;;28.08;47.71;98093.81;4486102;32;20474;-84
2022/08/02 01:59:08;;;;;;;8.43;4.70;;;;;;;28.14;47.24;98097.56;4486475;32;20167;-84
2022/08/02 02:01:35;;;;;;;9.23;4.60;;;;;;;27.09;50.10;98089.88;4487249;31;20095;-84
2022/08/02 02:04:03;;;;;;;9.25;5.07;;;;;;;27.12;50.37;98099.31;4486140;32;20104;-84
2022/08/02 02:06:32;;;;;;;8.35;4.70;;;;;;;27.00;50.95;98096.13;4486369;32;20160;-84
2022/08/02 02:08:59;;;;;;;9.70;4.75;;;;;;;26.65;52.00;98093.88;4485989;32;20110;-84
2022/08/02 02:11:26;;;;;;;8.25;4.78;;;;;;;26.50;52.58;98089.25;4487489;31;20117;-84
2022/08/02 02:14:14;;;;;;;9.50;4.75;;;;;;;26.46;52.95;98087.06;4487156;31;20092;-84
2022/08/02 02:16:43;;;;;;;10.77;4.70;;;;;;;26.66;52.28;98083.09;4487059;31;20091;-84
2022/08/02 02:19:11;;;;;;;8.23;4.60;;;;;;;26.39;52.59;98086.09;4487389;31;20164;-84
2022/08/02 02:21:46;;;;;;;10.53;4.90;;;;;;;26.70;51.91;98087.09;4487423;31;20423;-84
2022/08/02 02:24:13;;;;;;;8.70;4.62;;;;;;;27.35;50.16;98079.06;4486879;31;20104;-84
2022/08/02 02:26:42;;;;;;;9.32;4.70;;;;;;;27.20;50.32;98082.56;4486358;31;20551;-84
2022/08/02 02:29:19;;;;;;;7.72;4.37;;;;;;;27.43;49.88;98086.13;4486270;32;20088;-84
2022/08/02 02:31:47;;;;;;;8.18;4.72;;;;;;;27.03;51.09;98079.97;4486078;32;20471;-84
2022/08/02 02:34:17;;;;;;;10.75;4.62;;;;;;;27.15;50.89;98088.37;4485906;32;20175;-84
2022/08/02 02:36:49;;;;;;;9.38;4.70;;;;;;;27.86;49.09;98090.13;4485715;32;20120;-84
2022/08/02 02:39:19;;;;;;;7.32;4.47;;;;;;;28.02;48.50;98096.34;4487201;31;20114;-84
2022/08/02 02:41:47;;;;;;;9.38;4.55;;;;;;;27.81;48.93;98089.81;4486016;32;20095;-84
2022/08/02 02:44:18;;;;;;;8.90;4.80;;;;;;;27.03;50.77;98090.56;4485581;32;20471;-84
2022/08/02 02:46:47;;;;;;;7.45;4.60;;;;;;;27.11;51.09;98087.03;4486011;32;20470;-84
2022/08/02 02:49:15;;;;;;;8.15;4.55;;;;;;;26.39;53.00;98089.56;4487035;31;20156;-84
2022/08/02 02:51:43;;;;;;;9.20;4.80;;;;;;;26.67;52.14;98087.41;4485239;32;20110;-84
2022/08/02 02:54:11;;;;;;;9.48;5.10;;;;;;;26.83;51.79;98093.69;4485735;32;20168;-84
2022/08/02 02:56:59;;;;;;;10.88;5.20;;;;;;;26.45;52.88;98086.25;4475214;32;20097;-84
2022/08/02 02:59:27;;;;;;;9.57;4.90;;;;;;;26.75;51.88;98082.09;4486685;31;20177;-84
2022/08/02 03:01:54;;;;;;;9.07;5.15;;;;;;;26.91;51.29;98086.56;4485801;32;20092;-84
2022/08/02 03:04:26;;;;;;;9.93;4.93;;;;;;;27.34;49.87;98079.22;4485615;32;20108;-84
2022/08/02 03:07:13;;;;;;;11.70;5.30;;;;;;;26.99;50.92;98077.78;4486079;32;20110;-84
2022/08/02 03:09:40;;;;;;;10.32;5.00;;;;;;;27.04;50.93;98072.84;4486806;31;20080;-84
2022/08/02 03:12:08;;;;;;;8.32;4.60;;;;;;;27.11;50.79;98068.50;4486507;31;20151;-84
2022/08/02 03:14:40;;;;;;;9.18;5.05;;;;;;;27.29;50.46;98071.78;4485434;32;20097;-84
2022/08/02 03:17:08;;;;;;;8.07;4.40;;;;;;;28.30;47.19;98073.63;4486773;31;20153;-84
2022/08/02 03:19:34;;;;;;;9.27;4.70;;;;;;;27.98;47.79;98065.87;4486392;31;20776;-84
2022/08/02 03:22:01;;;;;;;8.65;4.53;;;;;;;27.90;48.31;98064.09;4486730;31;20160;-84
2022/08/02 03:24:28;;;;;;;9.13;5.03;;;;;;;27.77;49.15;98072.63;4486448;31;20116;-84
2022/08/02 03:26:55;;;;;;;9.70;4.68;;;;;;;27.53;50.01;98080.63;4486283;31;20120;-84
2022/08/02 03:29:22;;;;;;;8.45;4.97;;;;;;;27.47;50.42;98079.50;4486533;31;20104;-84
2022/08/02 03:31:50;;;;;;;10.02;5.03;;;;;;;27.73;49.69;98076.59;4486573;31;20089;-84
2022/08/02 03:34:17;;;;;;;11.07;5.00;;;;;;;27.52;49.89;98076.31;4486087;31;20155;-84
2022/08/02 03:36:47;;;;;;;8.55;4.47;;;;;;;26.97;51.90;98077.94;4486568;31;20112;-84
2022/08/02 03:39:14;;;;;;;8.45;5.12;;;;;;;26.67;53.04;98083.94;4488591;31;20494;-84
2022/08/02 03:41:42;;;;;;;9.60;4.85;;;;;;;26.56;53.57;98086.91;4486988;32;20084;-84
2022/08/02 03:44:10;;;;;;;9.75;5.20;;;;;;;27.44;50.44;98087.81;4487242;32;20104;-84
2022/08/02 03:46:38;;;;;;;8.82;5.00;;;;;;;26.97;51.90;98095.66;4486982;32;20179;-83
2022/08/02 03:49:07;;;;;;;10.07;4.97;;;;;;;27.58;50.04;98094.19;4488502;31;20159;-84
2022/08/02 03:51:35;;;;;;;9.02;4.50;;;;;;;27.73;48.69;98095.16;4488004;31;20397;-84
2022/08/02 03:54:02;;;;;;;8.85;4.70;;;;;;;27.41;49.26;98090.78;4487965;31;20157;-84
2022/08/02 03:56:29;;;;;;;8.35;4.80;;;;;;;27.74;49.04;98099.44;4488324;31;20092;-84
2022/08/02 03:59:10;;;;;;;8.40;4.65;;;;;;;28.08;47.90;98098.31;4474226;32;20156;-84
2022/08/02 04:01:37;;;;;;;8.00;4.12;;;;;;;28.68;46.58;98105.50;4488150;31;20119;-84
2022/08/02 04:04:05;;;;;;;9.60;4.35;;;;;;;28.91;46.09;98103.66;4488282;31;20413;-83
2022/08/02 04:06:32;;;;;;;9.52;4.18;;;;;;;28.79;46.59;98105.91;4487164;32;20187;-84
2022/08/02 04:09:00;;;;;;;7.97;4.07;;;;;;;29.32;44.89;98105.91;4486724;32;20103;-83
2022/08/02 04:11:30;;;;;;;8.65;4.18;;;;;;;30.00;43.58;98109.28;4488246;31;20190;-84
2022/08/02 04:14:03;;;;;;;7.87;4.30;;;;;;;29.77;44.19;98109.41;4488281;31;20175;-84
2022/08/02 04:16:39;;;;;;;8.52;3.78;;;;;;;30.46;42.18;98126.59;4486658;32;20571;-84
2022/08/02 04:19:08;;;;;;;6.45;3.85;;;;;;;30.57;41.46;98121.78;4487116;32;20607;-84
2022/08/02 04:21:42;;;;;;;8.55;4.00;;;;;;;31.72;39.01;98116.91;4486840;32;20124;-83
2022/08/02 04:24:24;;;;;;;6.62;3.58;;;;;;;32.28;38.32;98116.72;4486957;32;20489;-84
2022/08/02 04:26:56;;;;;;;7.65;4.00;;;;;;;32.40;38.25;98120.44;4474040;32;20123;-84
2022/08/02 04:29:43;;;;;;;6.40;3.55;;;;;;;32.42;37.93;98123.75;4486655;32;20507;-84
2022/08/02 04:32:13;;;;;;;6.65;3.72;;;;;;;32.83;37.27;98132.66;4482430;32;143922;-84
2022/08/02 04:34:41;;;;;;;7.82;3.75;;;;;;;33.13;36.58;98136.56;4486805;32;20100;-84
2022/08/02 04:37:20;;;;;;;9.45;3.85;;;;;;;33.55;36.09;98143.28;4487711;31;20447;-84
2022/08/02 04:39:47;;;;;;;7.30;3.55;;;;;;;33.76;35.92;98134.19;4488043;31;20453;-84
2022/08/02 04:42:22;;;;;;;7.72;3.60;;;;;;;34.29;34.99;98139.31;4488101;31;20076;-84
2022/08/02 04:44:49;;;;;;;6.22;3.42;;;;;;;34.49;34.87;98140.06;4487579;31;20100;-84
2022/08/02 04:47:17;;;;;;;6.32;3.40;;;;;;;34.58;33.57;98145.97;4488038;31;20152;-84
2022/08/02 04:50:04;;;;;;;10.50;3.72;;;;;;;34.81;33.20;98142.72;4485813;32;20435;-84
2022/08/02 04:52:31;;;;;;;7.55;3.70;;;;;;;34.61;34.63;98144.72;4488031;31;20080;-84
2022/08/02 04:54:58;;;;;;;9.60;3.60;;;;;;;34.22;34.33;98139.34;4487719;31;20175;-84
2022/08/02 05:00:18;;;;;;;7.35;3.90;;;;;;;32.63;35.59;98132.59;4488021;32;20449;-84
2022/08/02 05:02:46;;;;;;;7.35;3.60;;;;;;;32.42;37.02;98137.09;4487951;31;20084;-84
2022/08/02 05:05:14;;;;;;;8.30;3.70;;;;;;;31.87;37.76;98132.78;4487502;32;20559;-84
2022/08/02 05:07:41;;;;;;;4.97;3.08;;;;;;;32.24;36.82;98137.66;4487889;31;20117;-84
2022/08/02 05:10:08;;;;;;;7.18;3.25;;;;;;;32.79;36.54;98143.72;4487804;31;20155;-84
2022/08/02 05:12:37;;;;;;;7.07;3.50;;;;;;;33.82;34.63;98148.56;4487585;31;20088;-84
2022/08/02 05:15:05;;;;;;;6.55;3.50;;;;;;;33.85;34.82;98142.78;4487653;31;20156;-84
2022/08/02 05:17:34;;;;;;;7.37;3.40;;;;;;;34.92;33.44;98152.75;4487885;31;20092;-85
2022/08/02 05:20:02;;;;;;;7.12;3.40;;;;;;;35.67;32.72;98157.22;4487469;31;20590;-84
2022/08/02 05:22:29;;;;;;;5.78;3.35;;;;;;;37.00;31.04;98155.25;4487707;31;20092;-84
2022/08/02 05:24:56;;;;;;;7.75;3.45;;;;;;;37.96;28.83;98163.87;4487334;31;20127;-83
2022/08/02 05:27:23;;;;;;;5.85;3.50;;;;;;;39.01;27.51;98166.09;4487829;31;20148;-84
2022/08/02 05:29:50;;;;;;;7.65;3.67;;;;;;;39.48;26.78;98167.66;4487675;31;20136;-84
2022/08/02 05:32:22;;;;;;;7.30;3.22;;;;;;;39.21;27.29;98162.13;4487528;31;20098;-84
2022/08/02 05:34:52;;;;;;;8.48;3.53;;;;;;;38.98;27.02;98163.91;4487522;31;20101;-84
2022/08/02 05:37:19;;;;;;;5.85;3.50;;;;;;;38.25;28.30;98155.84;4487709;31;20501;-84
2022/08/02 05:39:45;;;;;;;7.43;3.40;;;;;;;37.23;29.98;98157.16;4487348;31;20144;-84
2022/08/02 05:42:21;;;;;;;8.27;3.40;;;;;;;38.02;28.40;98165.63;4487730;31;20067;-84
2022/08/02 05:44:48;;;;;;;4.85;3.10;;;;;;;40.18;25.83;98172.34;4487518;31;20100;-84
2022/08/02 05:47:16;;;;;;;6.07;3.05;;;;;;;40.58;25.10;98173.88;4487293;31;20122;-84
2022/08/02 05:49:43;;;;;;;5.78;3.30;;;;;;;40.99;24.43;98175.09;4473470;32;20166;-84
2022/08/02 05:52:15;;;;;;;7.28;3.53;;;;;;;41.08;24.32;98173.53;4487366;31;20480;-84
2022/08/02 05:55:06;;;;;;;5.43;3.17;;;;;;;41.52;24.38;98181.44;4486055;32;20096;-84
2022/08/02 05:57:47;;;;;;;10.57;3.83;;;;;;;40.66;25.27;98173.44;4487622;31;20131;-84
2022/08/02 06:00:15;;;;;;;7.22;3.35;;;;;;;40.73;24.95;98176.75;4486558;31;20156;-84
2022/08/02 06:02:42;;;;;;;5.07;3.08;;;;;;;40.77;25.04;98172.44;4486992;31;20419;-82
2022/08/02 06:05:15;;;;;;;6.05;3.47;;;;;;;40.19;25.86;98171.28;4487452;31;20092;-82
2022/08/02 06:07:44;;;;;;;6.45;3.35;;;;;;;40.05;25.62;98175.44;4486960;31;20110;-82
2022/08/02 06:10:13;;;;;;;6.55;3.30;;;;;;;39.49;26.52;98180.91;4487198;31;20392;-80
2022/08/02 06:12:49;;;;;;;6.65;3.72;;;;;;;37.55;28.97;98184.53;4487334;31;20106;-80
2022/08/02 06:15:18;;;;;;;5.87;3.37;;;;;;;37.59;29.00;98185.69;4486816;31;20113;-80
2022/08/02 06:17:46;;;;;;;8.07;3.60;;;;;;;37.50;29.87;98184.41;4487348;31;20148;-82
2022/08/02 06:20:14;;;;;;;5.50;3.37;;;;;;;37.70;30.41;98185.91;4487348;31;20163;-82
2022/08/02 06:22:43;;;;;;;6.55;3.78;;;;;;;37.84;29.69;98190.00;4485942;32;20151;-82
2022/08/02 06:25:14;;;;;;;6.18;3.37;;;;;;;37.61;29.43;98193.53;4487127;31;20119;-82
2022/08/02 06:28:03;;;;;;;6.25;3.40;;;;;;;37.32;29.69;98192.59;4485805;32;20219;-82
2022/08/02 06:30:36;;;;;;;11.70;3.60;;;;;;;37.27;29.86;98195.97;4487151;31;20171;-82
2022/08/02 06:33:03;;;;;;;6.37;3.60;;;;;;;36.82;30.50;98200.22;4486060;32;20140;-81
2022/08/02 06:35:43;;;;;;;6.00;3.60;;;;;;;35.69;32.52;98203.44;4486761;31;20450;-81
2022/08/02 06:38:14;;;;;;;7.70;3.95;;;;;;;34.67;33.88;98194.78;4485714;32;20125;-81
2022/08/02 06:40:47;;;;;;;7.28;3.60;;;;;;;35.21;33.35;98204.09;4485368;32;20089;-81
2022/08/02 06:43:25;;;;;;;7.10;3.60;;;;;;;33.55;35.79;98199.47;4485580;32;20155;-80
2022/08/02 06:45:52;;;;;;;5.57;3.30;;;;;;;35.11;34.38;98201.91;4487028;31;20127;-80
2022/08/02 06:48:19;;;;;;;6.43;3.58;;;;;;;35.81;32.86;98204.34;4487085;31;20106;-81
2022/08/02 06:50:46;;;;;;;7.78;3.87;;;;;;;36.42;30.67;98206.97;4485301;32;20172;-81
2022/08/02 06:53:13;;;;;;;5.62;3.10;;;;;;;36.48;30.96;98206.06;4486964;31;20111;-81
2022/08/02 06:55:41;;;;;;;6.18;3.62;;;;;;;35.74;32.54;98206.31;4486974;31;20135;-81
2022/08/02 06:58:11;;;;;;;8.13;3.83;;;;;;;34.10;34.35;98202.63;4486682;32;20092;-81
2022/08/02 07:00:38;;;;;;;6.25;3.45;;;;;;;35.29;33.22;98199.25;4486921;31;20464;-81
2022/08/02 07:03:05;;;;;;;9.07;3.53;;;;;;;34.19;34.58;98203.22;4486671;31;20100;-81
2022/08/02 07:05:33;;;;;;;7.43;3.72;;;;;;;34.41;33.96;98201.09;4486777;31;20104;-81
2022/08/02 07:08:01;;;;;;;6.87;3.45;;;;;;;34.30;34.87;98199.06;4486824;31;20442;-81
2022/08/02 07:10:28;;;;;;;7.57;3.58;;;;;;;36.12;31.49;98204.22;4486473;31;20092;-81
2022/08/02 07:12:55;;;;;;;7.43;3.40;;;;;;;37.05;30.64;98203.78;4485154;32;20110;-81
2022/08/02 07:15:25;;;;;;;5.37;3.30;;;;;;;35.91;32.08;98204.69;4486495;31;20165;-81
2022/08/02 07:17:52;;;;;;;5.55;3.20;;;;;;;36.95;30.23;98200.03;4486406;31;20167;-82
2022/08/02 07:20:19;;;;;;;7.53;3.47;;;;;;;36.36;31.85;98199.81;4486761;31;20085;-81
2022/08/02 07:22:46;;;;;;;4.70;2.90;;;;;;;34.66;34.36;98193.09;4486749;31;20110;-82
2022/08/02 07:25:13;;;;;;;7.60;3.40;;;;;;;35.40;32.83;98192.38;4486218;31;20458;-82
2022/08/02 07:27:40;;;;;;;5.78;3.42;;;;;;;33.41;35.56;98187.16;4486559;31;20172;-82
2022/08/02 07:30:08;;;;;;;6.75;3.60;;;;;;;32.21;38.33;98186.09;4486600;31;20598;-82
2022/08/02 07:32:35;;;;;;;6.65;3.45;;;;;;;33.34;36.09;98183.62;4486174;31;20100;-80
2022/08/02 07:35:03;;;;;;;6.45;3.42;;;;;;;35.72;32.24;98197.63;4486400;31;20491;-82
2022/08/02 07:37:34;;;;;;;7.97;3.87;;;;;;;36.54;31.12;98193.56;4486513;32;20096;-81
2022/08/02 07:40:22;;;;;;;7.20;3.40;;;;;;;35.85;31.86;98197.50;4474603;32;20100;-81
2022/08/02 07:42:51;;;;;;;8.35;3.50;;;;;;;34.47;34.31;98193.03;4486326;31;20592;-81
2022/08/02 07:45:25;;;;;;;6.40;3.50;;;;;;;32.98;36.71;98200.09;4485860;31;20655;-81
2022/08/02 07:47:52;;;;;;;8.25;3.83;;;;;;;32.27;37.70;98197.00;4486228;31;20114;-80
2022/08/02 07:50:20;;;;;;;6.87;3.53;;;;;;;33.57;35.64;98192.06;4485947;31;20155;-81
2022/08/02 07:52:48;;;;;;;7.40;3.50;;;;;;;32.18;37.62;98193.69;4485921;31;20076;-80
2022/08/02 07:55:23;;;;;;;6.35;3.33;;;;;;;33.26;36.57;98197.19;4486096;31;20112;-80
2022/08/02 07:58:04;;;;;;;6.68;3.45;;;;;;;35.06;33.11;98201.72;4485922;32;20115;-79
2022/08/02 08:00:36;;;;;;;7.25;3.28;;;;;;;34.69;33.10;98196.19;4485574;31;20080;-82
2022/08/02 08:03:03;;;;;;;5.80;3.00;;;;;;;33.78;34.62;98195.50;4486067;31;20110;-81
2022/08/02 08:05:30;;;;;;;4.50;2.97;;;;;;;32.55;36.69;98192.41;4485941;31;20115;-82
2022/08/02 08:07:57;;;;;;;5.22;3.20;;;;;;;33.78;34.34;98195.50;4485539;31;20092;-82
2022/08/02 08:10:24;;;;;;;6.20;3.20;;;;;;;34.79;32.65;98195.72;4485697;31;20413;-83
2022/08/02 08:12:51;;;;;;;8.55;3.05;;;;;;;34.18;33.07;98190.88;4485885;31;20148;-82
2022/08/02 08:15:18;;;;;;;11.10;3.28;;;;;;;33.46;34.42;98197.22;4485412;31;20127;-82
2022/08/02 08:17:45;;;;;;;6.60;3.08;;;;;;;34.14;33.19;98197.69;4485914;31;20125;-82
2022/08/02 08:20:12;;;;;;;5.40;3.17;;;;;;;33.16;35.11;98194.94;4484245;32;20159;-80
2022/08/02 08:22:41;;;;;;;5.78;2.75;;;;;;;31.05;39.32;98194.75;4485716;31;20123;-81
2022/08/02 08:25:09;;;;;;;4.15;2.30;;;;;;;31.50;37.53;98195.34;4487231;31;20168;-81
2022/08/02 08:27:36;;;;;;;4.72;2.53;;;;;;;30.77;38.18;98192.88;4487822;31;20144;-81
2022/08/02 08:30:03;;;;;;;4.82;2.70;;;;;;;30.66;39.29;98200.56;4488119;31;20492;-81
2022/08/02 08:32:30;;;;;;;6.18;3.03;;;;;;;29.93;40.96;98199.63;4487992;31;20568;-81
2022/08/02 08:34:58;;;;;;;5.35;3.15;;;;;;;31.18;39.65;98202.87;4487626;31;20486;-81
2022/08/02 08:37:26;;;;;;;9.32;3.35;;;;;;;32.26;37.06;98203.38;4487957;31;20172;-81
2022/08/02 08:39:53;;;;;;;6.30;2.97;;;;;;;31.98;38.20;98211.44;4488121;31;20100;-81
2022/08/02 08:42:28;;;;;;;5.03;2.90;;;;;;;31.80;38.63;98217.31;4487828;31;20362;-81
2022/08/02 08:44:55;;;;;;;7.03;3.08;;;;;;;32.99;35.89;98218.59;4487854;31;20112;-81
2022/08/02 08:47:24;;;;;;;8.13;3.28;;;;;;;32.21;37.53;98222.63;4487818;31;20115;-81
2022/08/02 08:50:02;;;;;;;5.43;2.67;;;;;;;32.88;36.07;98221.88;4487465;32;20096;-81
2022/08/02 08:52:32;;;;;;;5.00;2.83;;;;;;;33.25;35.19;98230.31;4486838;32;20076;-81
2022/08/02 08:54:59;;;;;;;6.43;3.25;;;;;;;32.74;36.24;98229.00;4487869;31;20381;-81
2022/08/02 08:57:28;;;;;;;7.43;2.85;;;;;;;32.82;35.32;98228.00;4473444;32;20156;-81
2022/08/02 08:59:55;;;;;;;5.37;3.12;;;;;;;32.05;37.78;98239.00;4487907;31;20140;-81
2022/08/02 09:02:22;;;;;;;6.12;3.20;;;;;;;32.06;37.98;98240.66;4487599;31;20144;-81
2022/08/02 09:04:54;;;;;;;6.70;3.40;;;;;;;31.12;39.52;98245.47;4487838;31;20149;-81
2022/08/02 09:07:22;;;;;;;7.00;3.62;;;;;;;33.17;35.39;98241.22;4486740;32;20128;-81
2022/08/02 09:09:49;;;;;;;6.37;3.03;;;;;;;32.90;36.95;98238.53;4487493;31;20119;-82
2022/08/02 09:12:18;;;;;;;6.00;3.10;;;;;;;32.76;36.49;98242.19;4486653;32;20077;-81
2022/08/02 09:14:45;;;;;;;5.80;3.00;;;;;;;34.56;32.82;98241.81;4487664;31;20111;-81
2022/08/02 09:17:16;;;;;;;5.15;3.30;;;;;;;34.74;32.95;98241.91;4487475;31;20088;-80
2022/08/02 09:19:44;;;;;;;5.12;3.15;;;;;;;35.39;32.81;98248.94;4486628;32;20111;-81
2022/08/02 09:22:12;;;;;;;4.20;2.87;;;;;;;34.80;32.92;98250.97;4487793;31;20201;-81
2022/08/02 09:24:43;;;;;;;5.37;3.25;;;;;;;34.55;33.20;98244.69;4487410;31;20096;-81
2022/08/02 09:27:12;;;;;;;6.40;3.42;;;;;;;35.09;32.76;98241.50;4487588;31;20164;-81
2022/08/02 09:29:40;;;;;;;5.62;3.20;;;;;;;36.43;30.88;98245.41;4487626;31;20144;-82
2022/08/02 09:32:32;;;;;;;6.25;3.40;;;;;;;34.37;33.66;98246.22;4487181;31;20153;-81
2022/08/02 09:34:59;;;;;;;5.95;3.58;;;;;;;31.40;38.98;98251.69;4486063;32;20105;-81
2022/08/02 09:37:28;;;;;;;10.30;3.70;;;;;;;32.03;38.68;98249.06;4487277;31;20146;-81
2022/08/02 09:39:58;;;;;;;6.28;3.58;;;;;;;32.91;36.72;98253.53;4487648;31;20084;-81
2022/08/02 09:42:26;;;;;;;7.47;3.87;;;;;;;33.48;36.08;98243.28;4487697;31;20506;-81
2022/08/02 09:45:00;;;;;;;7.78;3.97;;;;;;;31.72;38.91;98254.78;4487254;31;20123;-81
2022/08/02 09:47:29;;;;;;;5.40;3.00;;;;;;;31.51;39.84;98250.31;4487532;31;20105;-81
2022/08/02 09:49:57;;;;;;;6.45;3.72;;;;;;;30.62;40.34;98247.16;4487420;31;20084;-80
2022/08/02 09:52:29;;;;;;;5.97;3.17;;;;;;;31.11;39.87;98241.97;4487267;31;20538;-80
2022/08/02 09:55:10;;;;;;;5.65;3.40;;;;;;;30.71;40.46;98240.75;4487526;32;20095;-80
2022/08/02 09:57:37;;;;;;;6.50;3.42;;;;;;;31.64;38.11;98242.41;4487527;32;20088;-80
2022/08/02 10:00:11;;;;;;;6.30;3.60;;;;;;;31.31;38.95;98239.50;4487077;31;20088;-80
2022/08/02 10:03:08;;;;;;;7.87;3.90;;;;;;;30.88;39.55;98242.16;4487613;31;20076;-80
2022/08/02 10:05:50;;;;;;;6.47;3.65;;;;;;;30.18;41.07;98232.94;4487139;31;20088;-79
2022/08/02 10:08:24;;;;;;;5.57;3.40;;;;;;;31.55;38.81;98228.41;4487493;31;20096;-79
2022/08/02 10:10:59;;;;;;;6.20;3.25;;;;;;;30.65;40.45;98215.72;4487382;31;20104;-82
2022/08/02 10:13:30;;;;;;;5.12;2.95;;;;;;;29.65;41.63;98226.88;4487051;31;20131;-81
2022/08/02 10:15:57;;;;;;;7.10;3.00;;;;;;;29.74;40.57;98218.81;4486157;32;20168;-81
2022/08/02 10:18:25;;;;;;;7.82;3.80;;;;;;;30.73;39.41;98220.06;4487481;31;20118;-81
2022/08/02 10:21:06;;;;;;;6.53;3.80;;;;;;;31.35;39.13;98224.75;4487119;31;20103;-80
2022/08/02 10:23:35;;;;;;;9.30;4.35;;;;;;;31.90;38.54;98229.28;4486162;32;20468;-80
2022/08/02 10:26:03;;;;;;;7.12;3.70;;;;;;;32.66;38.12;98223.03;4487314;31;20187;-80
2022/08/02 10:28:30;;;;;;;7.75;4.10;;;;;;;33.17;36.84;98225.16;4485825;32;20115;-80
2022/08/02 10:31:00;;;;;;;6.45;4.03;;;;;;;32.94;37.36;98220.22;4487264;31;20076;-80
2022/08/02 10:33:32;;;;;;;8.07;4.20;;;;;;;32.62;38.07;98221.78;4487006;31;20072;-80
2022/08/02 10:35:59;;;;;;;7.62;4.18;;;;;;;31.46;40.27;98223.41;4487189;31;20104;-80
2022/08/02 10:38:34;;;;;;;6.75;4.20;;;;;;;31.44;40.39;98226.28;4486260;32;20143;-80
2022/08/02 10:41:01;;;;;;;7.37;3.87;;;;;;;29.71;43.80;98216.53;4485716;32;20171;-80
2022/08/02 10:43:31;;;;;;;7.57;3.70;;;;;;;30.31;41.91;98228.81;4487112;31;20092;-80
2022/08/02 10:46:20;;;;;;;7.40;4.10;;;;;;;31.07;40.92;98216.72;4487167;31;20543;-80
2022/08/02 10:49:07;;;;;;;8.50;3.78;;;;;;;31.78;38.65;98211.34;4486469;31;20438;-80
2022/08/02 10:52:00;;;;;;;6.50;3.60;;;;;;;34.03;34.92;98212.56;4487029;31;20160;-80
2022/08/02 10:54:38;;;;;;;6.18;3.58;;;;;;;33.35;34.79;98210.19;4487014;31;20144;-80
2022/08/02 10:57:20;;;;;;;10.20;3.67;;;;;;;34.29;33.74;98211.63;4486929;31;20468;-79
2022/08/02 10:59:49;;;;;;;6.57;3.20;;;;;;;34.03;34.45;98201.00;4487077;31;20156;-79
2022/08/02 11:02:41;;;;;;;5.28;3.22;;;;;;;33.74;34.44;98202.31;4486638;31;20171;-80
2022/08/02 11:05:10;;;;;;;6.93;3.50;;;;;;;32.88;35.20;98192.47;4481029;31;20076;-80
2022/08/02 11:07:48;;;;;;;6.05;3.50;;;;;;;31.58;37.68;98196.03;4486918;31;20177;-80
2022/08/02 11:10:34;;;;;;;7.50;3.37;;;;;;;32.69;35.81;98195.91;4486667;31;20545;-80
2022/08/02 11:13:13;;;;;;;4.90;3.17;;;;;;;32.66;36.25;98190.97;4485740;32;20148;-81
2022/08/02 11:15:55;;;;;;;4.37;2.85;;;;;;;32.70;36.58;98189.53;4486533;31;20084;-80
2022/08/02 11:18:48;;;;;;;3.85;2.15;;;;;;;32.52;35.29;98190.12;4486851;31;20092;-80
2022/08/02 11:21:23;;;;;;;5.07;3.00;;;;;;;32.05;34.34;98193.63;4486889;31;20110;-80
2022/08/02 11:23:51;;;;;;;5.97;3.20;;;;;;;31.23;36.66;98192.47;4486283;31;20174;-80
2022/08/02 11:26:30;;;;;;;5.28;3.20;;;;;;;31.10;38.20;98197.69;4486701;31;20144;-80
2022/08/02 11:29:01;;;;;;;5.10;3.10;;;;;;;30.91;38.19;98185.84;4486592;31;20438;-80
2022/08/02 11:31:34;;;;;;;5.78;3.10;;;;;;;30.79;38.66;98176.72;4486333;31;20088;-80
2022/08/02 11:34:01;;;;;;;7.62;3.20;;;;;;;31.26;38.49;98180.59;4485205;32;20171;-79
2022/08/02 11:36:43;;;;;;;6.55;3.40;;;;;;;33.10;34.52;98174.41;4485577;32;20465;-80
2022/08/02 11:39:12;;;;;;;5.50;3.10;;;;;;;32.61;35.08;98175.53;4486524;31;20092;-80
2022/08/02 11:41:42;;;;;;;5.32;3.03;;;;;;;32.26;35.83;98166.81;4486523;31;20199;-79
2022/08/02 11:44:13;;;;;;;5.62;2.87;;;;;;;33.04;34.06;98172.53;4486004;31;20171;-79
2022/08/02 11:46:40;;;;;;;5.82;2.83;;;;;;;33.78;31.65;98180.28;4485149;32;20102;-79
2022/08/02 11:49:17;;;;;;;4.15;2.50;;;;;;;34.63;31.80;98167.56;4486363;31;20574;-79
2022/08/02 11:51:51;;;;;;;3.87;2.40;;;;;;;32.97;32.29;98163.72;4484483;32;20096;-80
2022/08/02 11:54:28;;;;;;;4.25;2.35;;;;;;;32.83;32.76;98167.38;4486186;32;20374;-79